Time;durP1;ratioP1;P1;durP2;ratioP2;P2;SDS_P1;SDS_P2;PMS_P1;PMS_P2;Temp;Humidity;BMP_temperature;BMP_pressure;BME280_temperature;BME280_humidity;BME280_pressure;Samples;Min_cycle;Max_cycle;Signal;HPM_P1;HPM_P2
2022/12/11 00:01:15;;;;;;;30.60;18.48;;;;;;;-2.61;100.00;99894.78;5054465;28;20202;-71
2022/12/11 00:03:41;;;;;;;32.67;17.85;;;;;;;-2.55;100.00;99898.31;5052049;28;20199;-73
2022/12/11 00:06:11;;;;;;;34.53;17.23;;;;;;;-2.52;100.00;99894.78;5055651;28;20290;-74
2022/12/11 00:08:38;;;;;;;33.90;18.10;;;;;;;-2.50;100.00;99900.94;5046365;28;20205;-71
2022/12/11 00:11:05;;;;;;;29.58;17.17;;;;;;;-2.47;100.00;99898.28;5053904;28;20640;-72
2022/12/11 00:13:32;;;;;;;31.27;17.88;;;;;;;-2.56;100.00;99912.34;5051036;28;20282;-72
2022/12/11 00:15:59;;;;;;;32.20;17.30;;;;;;;-2.50;100.00;99906.22;5056105;28;20200;-72
2022/12/11 00:18:25;;;;;;;28.38;17.20;;;;;;;-2.42;100.00;99906.19;5055150;28;20713;-72
2022/12/11 00:20:52;;;;;;;33.95;18.30;;;;;;;-2.38;100.00;99905.31;5038199;28;20211;-70
2022/12/11 00:23:20;;;;;;;27.30;16.65;;;;;;;-2.47;100.00;99897.41;5054453;28;20205;-72
2022/12/11 00:25:48;;;;;;;30.80;18.15;;;;;;;-2.37;100.00;99888.63;5055593;28;20236;-72
2022/12/11 00:28:17;;;;;;;30.92;17.25;;;;;;;-2.28;100.00;99893.00;5055029;28;20217;-72
2022/12/11 00:30:45;;;;;;;38.53;19.63;;;;;;;-2.41;100.00;99893.03;5056428;28;20190;-72
2022/12/11 00:33:12;;;;;;;34.15;19.95;;;;;;;-2.32;100.00;99897.41;5064076;28;20196;-72
2022/12/11 00:35:39;;;;;;;32.72;19.40;;;;;;;-2.27;100.00;99894.78;5055449;28;20276;-73
2022/12/11 00:38:06;;;;;;;29.75;18.80;;;;;;;-2.21;100.00;99898.28;5049531;28;20257;-73
2022/12/11 00:40:35;;;;;;;32.55;19.25;;;;;;;-2.16;100.00;99896.50;5049077;28;20667;-73
2022/12/11 00:43:01;;;;;;;32.60;19.17;;;;;;;-2.19;100.00;99891.25;5055222;28;20207;-71
2022/12/11 00:45:28;;;;;;;31.10;18.73;;;;;;;-2.16;100.00;99901.78;5051245;28;20594;-72
2022/12/11 00:47:54;;;;;;;32.10;18.80;;;;;;;-2.09;100.00;99905.28;5055889;28;20202;-71
2022/12/11 00:50:21;;;;;;;37.35;21.70;;;;;;;-2.19;100.00;99901.78;5051102;28;20201;-71
2022/12/11 00:52:48;;;;;;;35.33;21.73;;;;;;;-2.04;100.00;99905.28;5052631;28;20221;-72
2022/12/11 00:55:15;;;;;;;35.60;20.38;;;;;;;-1.96;100.00;99893.81;5055607;28;20213;-70
2022/12/11 00:57:42;;;;;;;36.88;19.90;;;;;;;-1.85;100.00;99895.53;5055839;28;20220;-73
2022/12/11 01:00:11;;;;;;;31.17;19.30;;;;;;;-1.86;100.00;99893.78;5045464;28;20634;-73
2022/12/11 01:02:38;;;;;;;34.13;19.67;;;;;;;-1.85;100.00;99890.25;5056461;28;20231;-72
2022/12/11 01:05:05;;;;;;;33.55;20.40;;;;;;;-1.94;100.00;99893.81;5057480;28;20228;-72
2022/12/11 01:07:31;;;;;;;27.83;18.00;;;;;;;-2.00;100.00;99897.34;5053896;28;20289;-72
2022/12/11 01:12:43;;;;;;;36.55;19.92;;;;;;;-1.98;100.00;99892.94;5052810;28;20711;-70
2022/12/11 01:15:10;;;;;;;33.55;20.48;;;;;;;-1.95;100.00;99898.19;5054997;28;20314;-71
2022/12/11 01:17:37;;;;;;;35.60;20.30;;;;;;;-1.85;100.00;99899.06;5049151;28;20224;-73
2022/12/11 01:20:05;;;;;;;36.67;19.70;;;;;;;-1.73;100.00;99893.75;5049894;28;20243;-73
2022/12/11 01:22:32;;;;;;;35.55;19.90;;;;;;;-1.73;100.00;99882.31;5055683;28;20234;-73
2022/12/11 01:24:59;;;;;;;37.78;23.80;;;;;;;-1.86;100.00;99892.03;5038865;28;20239;-74
2022/12/11 01:27:25;;;;;;;39.80;24.63;;;;;;;-1.92;100.00;99892.06;5057869;28;20199;-71
2022/12/11 01:29:53;;;;;;;38.10;23.23;;;;;;;-1.86;100.00;99902.59;5049420;28;20203;-72
2022/12/11 01:32:20;;;;;;;39.03;21.88;;;;;;;-1.74;100.00;99893.75;5050973;28;20682;-71
2022/12/11 01:34:46;;;;;;;35.70;21.13;;;;;;;-1.71;100.00;99886.69;5056327;28;20252;-72
2022/12/11 01:37:13;;;;;;;40.35;21.50;;;;;;;-1.69;100.00;99889.34;5055499;28;20586;-71
2022/12/11 01:39:39;;;;;;;35.53;22.48;;;;;;;-1.69;100.00;99884.06;5055665;28;20665;-72
2022/12/11 01:42:09;;;;;;;35.42;22.35;;;;;;;-1.74;100.00;99893.75;5056386;28;20685;-72
2022/12/11 01:45:22;;;;;;;31.45;20.08;;;;;;;-1.66;100.00;99893.72;5056763;28;20260;-72
2022/12/11 01:47:49;;;;;;;37.17;21.20;;;;;;;-1.61;100.00;99892.81;5042916;28;20197;-72
2022/12/11 01:50:17;;;;;;;37.03;21.30;;;;;;;-1.62;100.00;99895.47;5057695;28;20211;-72
2022/12/11 01:52:46;;;;;;;33.90;21.60;;;;;;;-1.55;100.00;99900.72;5058022;28;20227;-73
2022/12/11 01:55:13;;;;;;;35.97;20.95;;;;;;;-1.58;100.00;99907.75;5057364;28;20221;-72
2022/12/11 01:57:44;;;;;;;33.72;20.38;;;;;;;-1.54;100.00;99897.22;5058920;28;20248;-74
2022/12/11 02:00:12;;;;;;;35.65;21.70;;;;;;;-1.53;100.00;99898.09;5056221;28;20292;-72
2022/12/11 02:02:41;;;;;;;34.95;21.40;;;;;;;-1.49;100.00;99902.47;5054941;28;20642;-73
2022/12/11 02:05:08;;;;;;;36.10;21.58;;;;;;;-1.37;100.00;99893.59;5052096;28;20307;-71
2022/12/11 02:07:39;;;;;;;39.50;21.77;;;;;;;-1.38;100.00;99898.03;5051528;28;20201;-71
2022/12/11 02:10:07;;;;;;;42.03;23.90;;;;;;;-1.57;100.00;99885.78;5058178;28;20208;-72
2022/12/11 02:12:42;;;;;;;38.03;19.45;;;;;;;-1.78;100.00;99884.09;5057115;28;20264;-72
2022/12/11 02:15:12;;;;;;;33.25;20.55;;;;;;;-1.75;100.00;99884.06;5050100;28;20271;-73
2022/12/11 02:17:48;;;;;;;39.40;21.58;;;;;;;-1.83;100.00;99885.84;5047583;28;20224;-71
2022/12/11 02:20:22;;;;;;;46.33;20.70;;;;;;;-1.72;100.00;99884.06;5054061;28;20203;-72
2022/12/11 02:23:05;;;;;;;33.25;19.80;;;;;;;-1.62;100.00;99888.44;5053812;28;20202;-72
2022/12/11 02:25:40;;;;;;;38.45;22.27;;;;;;;-1.50;100.00;99888.38;5054840;28;20216;-72
2022/12/11 02:28:18;;;;;;;36.13;22.02;;;;;;;-1.38;100.00;99890.09;5054875;28;20228;-72
2022/12/11 02:30:50;;;;;;;36.25;22.05;;;;;;;-1.33;100.00;99901.50;5061595;28;20253;-70
2022/12/11 02:33:21;;;;;;;39.60;22.33;;;;;;;-1.25;100.00;99896.16;5075217;28;20204;-70
2022/12/11 02:35:49;;;;;;;36.17;21.38;;;;;;;-1.26;100.00;99902.34;5067375;28;20277;-71
2022/12/11 02:38:20;;;;;;;32.85;20.55;;;;;;;-1.35;100.00;99905.06;5077831;28;20543;-71
2022/12/11 02:40:50;;;;;;;35.45;20.20;;;;;;;-1.36;100.00;99903.28;5065145;28;20235;-72
2022/12/11 02:43:21;;;;;;;33.53;21.02;;;;;;;-1.29;100.00;99912.91;5060463;28;20207;-72
2022/12/11 02:45:49;;;;;;;37.35;22.40;;;;;;;-1.30;100.00;99909.41;5057990;28;20270;-72
2022/12/11 02:48:17;;;;;;;36.33;21.40;;;;;;;-1.19;100.00;99912.00;5059822;28;20715;-73
2022/12/11 02:50:47;;;;;;;34.92;22.45;;;;;;;-1.19;100.00;99912.00;5055888;28;20280;-71
2022/12/11 02:53:18;;;;;;;40.03;24.00;;;;;;;-1.20;100.00;99909.34;5055217;28;20208;-72
2022/12/11 02:55:46;;;;;;;38.80;22.35;;;;;;;-1.21;100.00;99907.63;5057799;28;20413;-73
2022/12/11 02:58:16;;;;;;;33.35;21.10;;;;;;;-1.14;100.00;99910.19;5044939;28;20659;-72
2022/12/11 03:00:44;;;;;;;41.75;22.90;;;;;;;-1.12;100.00;99900.50;5057813;28;20283;-72
2022/12/11 03:03:11;;;;;;;35.83;21.60;;;;;;;-1.15;100.00;99900.53;5042647;28;20463;-71
2022/12/11 03:05:38;;;;;;;38.28;22.13;;;;;;;-1.14;100.00;99904.91;5049362;28;20246;-72
2022/12/11 03:08:05;;;;;;;41.63;24.02;;;;;;;-1.12;100.00;99903.16;5053152;28;20211;-72
2022/12/11 03:10:32;;;;;;;37.25;22.50;;;;;;;-1.05;100.00;99899.56;5051738;28;20283;-72
2022/12/11 03:13:00;;;;;;;38.03;22.35;;;;;;;-0.98;100.00;99899.53;5054730;28;20215;-72
2022/12/11 03:15:33;;;;;;;36.95;22.08;;;;;;;-1.04;100.00;99908.41;5055545;28;20225;-73
2022/12/11 03:18:08;;;;;;;37.10;23.52;;;;;;;-1.11;100.00;99897.00;5046677;28;20750;-70
2022/12/11 03:20:38;;;;;;;36.40;20.70;;;;;;;-1.06;100.00;99899.59;5057392;28;20779;-71
2022/12/11 03:23:16;;;;;;;35.10;21.75;;;;;;;-1.09;100.00;99895.19;5053896;28;20205;-71
2022/12/11 03:25:50;;;;;;;39.47;22.52;;;;;;;-1.09;100.00;99896.97;5051655;28;20753;-73
2022/12/11 03:28:20;;;;;;;36.05;22.70;;;;;;;-1.05;100.00;99894.28;5055601;28;20196;-72
2022/12/11 03:30:51;;;;;;;36.45;22.00;;;;;;;-1.08;100.00;99889.03;5053246;28;20639;-73
2022/12/11 03:33:25;;;;;;;35.95;22.30;;;;;;;-1.12;100.00;99891.69;5052144;28;20569;-73
2022/12/11 03:35:55;;;;;;;34.40;22.33;;;;;;;-1.08;100.00;99886.38;5069935;28;20212;-74
2022/12/11 03:38:25;;;;;;;36.38;21.60;;;;;;;-1.10;100.00;99898.72;5073696;28;20211;-71
2022/12/11 03:40:56;;;;;;;36.70;20.60;;;;;;;-1.12;100.00;99903.16;5057936;28;20292;-72
2022/12/11 03:43:23;;;;;;;35.92;22.63;;;;;;;-1.17;100.00;99894.38;5061902;28;20670;-72
2022/12/11 03:45:53;;;;;;;36.33;21.85;;;;;;;-1.11;100.00;99904.00;5055855;28;20221;-73
2022/12/11 03:48:23;;;;;;;38.47;22.45;;;;;;;-1.06;100.00;99895.19;5054553;28;20592;-72
2022/12/11 03:50:50;;;;;;;34.85;20.70;;;;;;;-1.05;100.00;99893.41;5060039;28;20727;-73
2022/12/11 03:53:19;;;;;;;40.20;23.92;;;;;;;-1.14;100.00;99889.06;5058004;28;20201;-73
2022/12/11 03:55:48;;;;;;;41.13;23.25;;;;;;;-1.15;100.00;99895.25;5051400;28;20723;-73
2022/12/11 03:58:14;;;;;;;38.65;22.85;;;;;;;-1.15;100.00;99897.03;5057632;28;20274;-73
2022/12/11 04:00:41;;;;;;;39.97;23.20;;;;;;;-1.12;100.00;99891.69;5058658;28;20194;-73
2022/12/11 04:03:14;;;;;;;37.92;22.48;;;;;;;-1.15;100.00;99891.75;5055920;28;20205;-72
2022/12/11 04:05:44;;;;;;;34.72;21.80;;;;;;;-1.09;100.00;99892.53;5060139;28;20652;-72
2022/12/11 04:08:11;;;;;;;35.83;22.52;;;;;;;-1.13;100.00;99890.84;5055433;28;20190;-72
2022/12/11 04:10:38;;;;;;;36.08;23.27;;;;;;;-1.14;100.00;99890.84;5045688;28;20201;-72
2022/12/11 04:13:04;;;;;;;37.83;23.73;;;;;;;-1.14;100.00;99896.13;5056601;28;20197;-72
2022/12/11 04:15:30;;;;;;;37.58;22.42;;;;;;;-1.09;100.00;99903.13;5052941;28;20220;-72
2022/12/11 04:26:12;;;;;;;35.80;21.58;;;;;;;-1.30;100.00;99890.91;5045425;28;20692;-72
2022/12/11 04:28:39;;;;;;;36.58;22.70;;;;;;;-1.38;100.00;99894.47;5056518;28;20719;-70
2022/12/11 04:31:06;;;;;;;39.72;21.50;;;;;;;-1.36;100.00;99896.22;5056243;28;20209;-72
2022/12/11 04:33:32;;;;;;;34.42;22.30;;;;;;;-1.24;100.00;99897.94;5068588;28;20196;-72
2022/12/11 04:36:01;;;;;;;42.28;24.13;;;;;;;-1.11;100.00;99894.34;5065706;22;20227;-75
2022/12/11 04:38:27;;;;;;;40.92;23.60;;;;;;;-0.99;100.00;99895.16;5042545;28;20217;-74
2022/12/11 04:40:58;;;;;;;41.03;24.50;;;;;;;-0.91;100.00;99885.38;5046075;28;20715;-73
2022/12/11 04:43:26;;;;;;;37.70;23.67;;;;;;;-0.88;100.00;99880.09;5045220;28;20198;-75
2022/12/11 04:46:01;;;;;;;36.90;21.90;;;;;;;-0.81;100.00;99884.44;5037404;28;20252;-75
2022/12/11 04:48:27;;;;;;;39.50;22.80;;;;;;;-0.77;100.00;99887.94;5037838;28;20193;-76
2022/12/11 04:50:54;;;;;;;37.65;23.15;;;;;;;-0.79;100.00;99887.97;5037608;28;20212;-75
2022/12/11 04:53:22;;;;;;;35.13;21.73;;;;;;;-0.75;100.00;99896.72;5036737;28;20205;-75
2022/12/11 04:55:48;;;;;;;38.67;23.27;;;;;;;-0.68;100.00;99890.50;5026692;28;20268;-76
2022/12/11 04:58:15;;;;;;;36.97;21.80;;;;;;;-0.70;100.00;99874.66;5040076;28;20197;-75
2022/12/11 05:00:42;;;;;;;37.67;23.23;;;;;;;-0.72;100.00;99879.09;5054085;28;20297;-75
2022/12/11 05:03:09;;;;;;;40.13;23.20;;;;;;;-0.84;100.00;99884.47;5035912;28;20206;-75
2022/12/11 05:05:36;;;;;;;49.30;30.70;;;;;;;-1.00;100.00;99880.16;5039290;28;20232;-74
2022/12/11 05:08:02;;;;;;;36.67;21.70;;;;;;;-0.96;100.00;99887.19;5034851;28;20197;-76
2022/12/11 05:10:30;;;;;;;51.28;29.42;;;;;;;-1.01;100.00;99873.16;5034785;28;20202;-76
2022/12/11 05:12:57;;;;;;;42.90;24.00;;;;;;;-1.10;100.00;99884.66;5036522;28;20210;-76
2022/12/11 05:15:24;;;;;;;42.03;23.70;;;;;;;-1.01;100.00;99878.44;5037271;28;20226;-75
2022/12/11 05:17:50;;;;;;;38.45;24.00;;;;;;;-1.00;100.00;99873.13;5018077;28;20234;-76
2022/12/11 05:20:18;;;;;;;39.38;22.90;;;;;;;-0.85;100.00;99867.72;5033593;28;20248;-76
2022/12/11 05:22:44;;;;;;;37.30;22.40;;;;;;;-0.83;100.00;99872.13;5035184;28;20210;-75
2022/12/11 05:25:11;;;;;;;42.75;23.70;;;;;;;-0.84;100.00;99873.88;5033891;28;20217;-75
2022/12/11 05:27:39;;;;;;;36.65;22.88;;;;;;;-0.79;100.00;99880.03;5030540;28;20201;-75
2022/12/11 05:30:07;;;;;;;38.78;21.13;;;;;;;-0.75;100.00;99875.56;5029983;28;20208;-74
2022/12/11 05:32:33;;;;;;;38.28;21.67;;;;;;;-0.88;100.00;99874.81;5034762;28;20194;-75
2022/12/11 05:35:00;;;;;;;42.67;23.60;;;;;;;-0.86;100.00;99876.56;5031055;28;20881;-75
2022/12/11 05:37:27;;;;;;;37.22;22.65;;;;;;;-0.87;100.00;99874.78;5034482;28;20669;-75
2022/12/11 05:39:53;;;;;;;35.53;21.17;;;;;;;-0.87;100.00;99868.63;5031703;28;20214;-74
2022/12/11 05:42:20;;;;;;;41.47;21.48;;;;;;;-1.03;100.00;99870.50;5035783;28;20636;-75
2022/12/11 05:44:49;;;;;;;40.45;22.90;;;;;;;-1.02;100.00;99864.31;5030564;28;20241;-75
2022/12/11 05:47:19;;;;;;;39.08;21.95;;;;;;;-0.98;100.00;99868.69;5035030;28;20469;-76
2022/12/11 05:49:46;;;;;;;46.95;23.48;;;;;;;-0.97;100.00;99857.25;5051148;28;20201;-74
2022/12/11 05:52:12;;;;;;;45.45;26.15;;;;;;;-1.11;100.00;99851.16;5052838;28;20244;-75
2022/12/11 05:54:39;;;;;;;38.08;23.50;;;;;;;-1.19;100.00;99848.59;5050578;28;20332;-75
2022/12/11 05:57:05;;;;;;;41.67;22.85;;;;;;;-1.27;100.00;99850.38;5048560;28;20229;-73
2022/12/11 05:59:32;;;;;;;42.30;23.15;;;;;;;-1.32;100.00;99849.53;5051115;28;20232;-74
2022/12/11 06:02:00;;;;;;;42.58;22.58;;;;;;;-1.19;100.00;99845.94;5053529;28;20266;-75
2022/12/11 06:04:26;;;;;;;41.35;23.92;;;;;;;-1.39;100.00;99843.41;5057022;28;20194;-75
2022/12/11 06:06:54;;;;;;;39.72;22.00;;;;;;;-1.36;100.00;99840.75;5059413;28;20206;-75
2022/12/11 06:09:20;;;;;;;46.67;24.13;;;;;;;-1.31;100.00;99838.97;5046282;28;20730;-76
2022/12/11 06:11:47;;;;;;;38.85;23.35;;;;;;;-1.23;100.00;99838.91;5041090;28;20205;-75
2022/12/11 06:14:13;;;;;;;47.17;25.00;;;;;;;-1.27;100.00;99846.00;5039253;28;20217;-75
2022/12/11 06:16:40;;;;;;;41.53;23.33;;;;;;;-1.13;100.00;99848.56;5032902;28;20249;-75
2022/12/11 06:19:13;;;;;;;46.33;26.48;;;;;;;-1.05;100.00;99846.72;5030855;28;20308;-76
2022/12/11 06:21:40;;;;;;;43.35;24.60;;;;;;;-1.00;100.00;99843.16;5029467;28;20194;-76
2022/12/11 06:24:07;;;;;;;41.38;23.95;;;;;;;-0.88;100.00;99845.75;5037819;28;20265;-75
2022/12/11 06:26:33;;;;;;;44.03;25.45;;;;;;;-0.91;100.00;99848.38;5036089;28;20196;-77
2022/12/11 06:29:00;;;;;;;43.78;24.40;;;;;;;-0.87;100.00;99851.00;5032921;28;20202;-75
2022/12/11 06:31:27;;;;;;;41.17;23.17;;;;;;;-0.81;100.00;99849.19;5045298;28;20206;-74
2022/12/11 06:33:53;;;;;;;44.03;24.90;;;;;;;-0.86;100.00;99843.94;5046750;28;20742;-75
2022/12/11 06:36:23;;;;;;;42.58;22.90;;;;;;;-0.83;100.00;99840.41;5037791;28;20210;-75
2022/12/11 06:38:50;;;;;;;43.50;24.25;;;;;;;-0.88;100.00;99840.44;5037356;28;20309;-75
2022/12/11 06:41:17;;;;;;;43.97;23.80;;;;;;;-1.03;100.00;99838.78;5038269;28;20285;-76
2022/12/11 06:43:43;;;;;;;46.42;25.23;;;;;;;-0.94;100.00;99843.13;5039357;28;20194;-75
2022/12/11 06:46:12;;;;;;;35.97;20.75;;;;;;;-0.92;100.00;99844.88;5041211;28;20750;-76
2022/12/11 06:48:40;;;;;;;38.08;21.95;;;;;;;-0.92;100.00;99846.63;5045814;28;20723;-75
2022/12/11 06:51:09;;;;;;;43.03;24.00;;;;;;;-0.82;100.00;99845.66;5041792;28;20206;-77
2022/12/11 06:53:37;;;;;;;47.15;24.58;;;;;;;-0.70;100.00;99839.38;5035501;28;20208;-75
2022/12/11 06:56:04;;;;;;;42.42;25.75;;;;;;;-0.66;100.00;99843.78;5035553;28;20232;-76
2022/12/11 06:58:31;;;;;;;46.25;27.40;;;;;;;-0.63;100.00;99842.00;5038507;28;20205;-75
2022/12/11 07:00:58;;;;;;;50.65;29.50;;;;;;;-0.57;100.00;99845.47;5032462;28;20198;-75
2022/12/11 07:03:24;;;;;;;46.75;27.60;;;;;;;-0.53;100.00;99837.47;5035249;28;21824;-75
2022/12/11 07:05:51;;;;;;;50.40;27.10;;;;;;;-0.53;100.00;99844.53;5040044;28;20293;-75
2022/12/11 07:08:21;;;;;;;41.67;23.55;;;;;;;-0.55;100.00;99846.31;5037277;28;20292;-76
2022/12/11 07:10:48;;;;;;;40.65;23.98;;;;;;;-0.56;100.00;99848.09;5030753;28;20196;-76
2022/12/11 07:13:15;;;;;;;45.42;24.95;;;;;;;-0.52;100.00;99854.22;5036762;28;20204;-75
2022/12/11 07:15:41;;;;;;;42.33;24.77;;;;;;;-0.66;100.00;99851.69;5042321;28;20224;-75
2022/12/11 07:18:09;;;;;;;46.80;26.75;;;;;;;-0.73;100.00;99832.38;5040373;28;20289;-75
2022/12/11 07:20:36;;;;;;;44.80;24.40;;;;;;;-0.84;100.00;99847.44;5035988;28;20221;-75
2022/12/11 07:23:03;;;;;;;42.40;23.17;;;;;;;-0.83;100.00;99843.94;5033810;28;20646;-76
2022/12/11 07:25:30;;;;;;;46.35;26.50;;;;;;;-0.87;100.00;99842.19;5029089;28;20225;-76
2022/12/11 07:27:58;;;;;;;41.83;24.88;;;;;;;-0.96;100.00;99840.50;5034005;28;20194;-75
2022/12/11 07:30:25;;;;;;;46.85;25.45;;;;;;;-0.85;100.00;99857.16;5035896;28;20194;-75
2022/12/11 07:32:51;;;;;;;44.00;26.42;;;;;;;-0.86;100.00;99849.22;5036676;28;20333;-75
2022/12/11 07:35:18;;;;;;;44.95;24.85;;;;;;;-0.96;100.00;99852.84;5034677;28;20312;-75
2022/12/11 07:37:44;;;;;;;47.17;26.42;;;;;;;-0.89;100.00;99858.06;5037705;28;20208;-77
2022/12/11 07:40:12;;;;;;;42.72;25.20;;;;;;;-0.78;100.00;99857.09;5039522;28;20225;-74
2022/12/11 07:42:39;;;;;;;43.97;25.85;;;;;;;-0.77;100.00;99857.09;5028182;28;20199;-75
2022/12/11 07:45:08;;;;;;;42.70;25.67;;;;;;;-0.77;100.00;99848.28;5040333;28;20232;-76
2022/12/11 07:47:34;;;;;;;50.60;26.10;;;;;;;-0.88;100.00;99857.19;5044070;28;20235;-76
2022/12/11 07:50:01;;;;;;;42.55;26.52;;;;;;;-0.88;100.00;99872.16;5040132;28;20190;-74
2022/12/11 07:52:27;;;;;;;47.90;26.40;;;;;;;-0.77;100.00;99866.78;5046696;28;20233;-74
2022/12/11 07:54:54;;;;;;;45.78;26.58;;;;;;;-0.70;100.00;99866.75;5050727;28;20232;-74
2022/12/11 07:57:21;;;;;;;47.60;27.88;;;;;;;-0.66;100.00;99871.13;5050568;28;20236;-75
2022/12/11 07:59:48;;;;;;;50.50;28.83;;;;;;;-0.66;100.00;99872.88;5042363;28;20214;-73
2022/12/11 08:02:16;;;;;;;46.10;26.45;;;;;;;-0.64;100.00;99864.03;5052911;28;20265;-74
2022/12/11 08:04:42;;;;;;;47.33;27.95;;;;;;;-0.63;100.00;99873.72;5039431;28;20282;-74
2022/12/11 08:07:09;;;;;;;47.97;26.88;;;;;;;-0.55;100.00;99872.78;5052215;28;20265;-74
2022/12/11 08:09:35;;;;;;;39.92;24.33;;;;;;;-0.44;100.00;99878.84;5049373;28;20285;-73
2022/12/11 08:12:02;;;;;;;45.10;27.50;;;;;;;-0.36;100.00;99877.03;5048069;28;20197;-73
2022/12/11 08:14:29;;;;;;;47.63;26.80;;;;;;;-0.27;100.00;99871.66;5045610;28;20214;-72
2022/12/11 08:16:56;;;;;;;43.75;26.25;;;;;;;-0.35;100.00;99873.47;5049712;28;20648;-72
2022/12/11 08:19:24;;;;;;;42.95;25.48;;;;;;;-0.37;100.00;99867.31;5047899;28;20215;-73
2022/12/11 08:21:53;;;;;;;45.83;25.92;;;;;;;-0.44;100.00;99865.63;5050525;28;20287;-73
2022/12/11 08:24:20;;;;;;;46.60;25.83;;;;;;;-0.46;100.00;99862.13;5050258;28;20213;-73
2022/12/11 08:26:47;;;;;;;45.33;26.77;;;;;;;-0.41;100.00;99860.28;5050338;28;20200;-74
2022/12/11 08:29:14;;;;;;;56.10;32.50;;;;;;;-0.46;100.00;99862.97;5049939;28;20420;-74
2022/12/11 08:31:41;;;;;;;37.92;24.15;;;;;;;-0.44;100.00;99858.56;5044825;28;20218;-75
2022/12/11 08:34:08;;;;;;;48.60;26.42;;;;;;;-0.43;100.00;99854.13;5043537;28;20266;-75
2022/12/11 08:36:35;;;;;;;40.97;25.83;;;;;;;-0.40;100.00;99855.91;5042996;28;20276;-74
2022/12/11 08:39:02;;;;;;;43.03;26.80;;;;;;;-0.31;100.00;99856.69;5045068;28;20285;-75
2022/12/11 08:41:30;;;;;;;43.10;25.67;;;;;;;-0.18;100.00;99861.84;5046668;28;20210;-74
2022/12/11 08:43:59;;;;;;;49.97;27.63;;;;;;;-0.06;100.00;99861.72;5048026;28;20197;-75
2022/12/11 08:46:27;;;;;;;43.38;25.02;;;;;;;0.00;100.00;99872.25;5048422;28;20317;-74
2022/12/11 08:48:55;;;;;;;50.58;30.98;;;;;;;-0.15;100.00;99864.47;5040680;28;20244;-77
2022/12/11 08:51:24;;;;;;;57.88;29.98;;;;;;;-0.03;100.00;99867.84;5046275;28;20201;-74
2022/12/11 08:53:54;;;;;;;54.13;30.55;;;;;;;0.04;100.00;99873.94;5047883;28;20214;-74
2022/12/11 08:56:22;;;;;;;53.25;29.88;;;;;;;0.10;100.00;99865.94;5048527;28;20280;-77
2022/12/11 08:58:49;;;;;;;47.53;28.70;;;;;;;0.12;100.00;99872.13;5043977;28;20202;-78
2022/12/11 09:01:18;;;;;;;41.65;25.60;;;;;;;0.20;100.00;99867.63;5043094;28;20271;-74
2022/12/11 09:03:44;;;;;;;47.75;27.50;;;;;;;0.33;100.00;99864.81;5041998;28;20365;-74
2022/12/11 09:06:15;;;;;;;47.67;29.88;;;;;;;0.14;100.00;99862.38;5053191;28;20217;-73
2022/12/11 09:08:43;;;;;;;43.53;25.92;;;;;;;0.19;100.00;99855.25;5047687;28;20634;-73
2022/12/11 09:11:15;;;;;;;38.97;23.40;;;;;;;-0.07;100.00;99858.22;5043788;28;20190;-72
2022/12/11 09:13:43;;;;;;;54.88;28.77;;;;;;;-0.18;100.00;99857.44;5043697;28;20248;-74
2022/12/11 09:16:12;;;;;;;50.00;26.98;;;;;;;-0.17;100.00;99859.19;5043567;28;20702;-73
2022/12/11 09:18:39;;;;;;;42.88;24.65;;;;;;;-0.11;100.00;99856.47;5043548;28;20193;-73
2022/12/11 09:21:07;;;;;;;41.00;24.88;;;;;;;0.06;100.00;99858.06;5039365;28;20222;-73
2022/12/11 09:23:34;;;;;;;44.45;26.05;;;;;;;0.18;100.00;99855.25;5051504;28;20587;-72
2022/12/11 09:26:04;;;;;;;38.70;23.25;;;;;;;0.22;100.00;99864.06;5038855;28;20317;-74
2022/12/11 09:28:33;;;;;;;38.30;24.05;;;;;;;0.12;100.00;99856.22;5042176;28;20633;-74
2022/12/11 09:30:59;;;;;;;39.30;23.48;;;;;;;0.19;100.00;99860.56;5044903;28;20630;-74
2022/12/11 09:33:26;;;;;;;41.17;23.65;;;;;;;0.02;100.00;99859.84;5043053;28;20205;-74
2022/12/11 09:35:57;;;;;;;44.33;24.95;;;;;;;-0.08;100.00;99858.22;5046928;28;20308;-73
2022/12/11 09:38:24;;;;;;;40.08;23.25;;;;;;;-0.09;100.00;99862.63;5044508;28;20281;-75
2022/12/11 09:40:51;;;;;;;38.75;23.15;;;;;;;-0.03;100.00;99861.69;5045671;28;20224;-72
2022/12/11 09:43:29;;;;;;;39.38;25.92;;;;;;;0.05;100.00;99854.53;5045002;28;20270;-73
2022/12/11 09:46:00;;;;;;;42.17;26.05;;;;;;;0.22;100.00;99856.13;5034886;28;20210;-74
2022/12/11 09:48:27;;;;;;;42.67;26.77;;;;;;;0.20;100.00;99854.38;5046030;28;20194;-74
2022/12/11 09:50:55;;;;;;;43.97;26.85;;;;;;;0.40;100.00;99843.50;5046925;28;20209;-73
2022/12/11 09:53:29;;;;;;;40.03;25.00;;;;;;;0.46;100.00;99844.34;5048669;28;20210;-73
2022/12/11 09:56:04;;;;;;;42.92;26.10;;;;;;;0.54;100.00;99842.44;5053382;28;20218;-75
2022/12/11 09:58:41;;;;;;;42.72;26.50;;;;;;;0.69;100.00;99838.72;5058565;28;20224;-73
2022/12/11 10:01:14;;;;;;;39.47;25.73;;;;;;;0.65;100.00;99831.72;5046945;28;20289;-73
2022/12/11 10:04:02;;;;;;;42.28;24.83;;;;;;;0.58;100.00;99839.75;5047793;28;20226;-73
2022/12/11 10:06:34;;;;;;;37.60;24.60;;;;;;;0.64;100.00;99838.78;5049680;28;20269;-74
2022/12/11 10:09:10;;;;;;;38.50;23.05;;;;;;;0.57;100.00;99842.44;5042079;28;20186;-74
2022/12/11 10:11:58;;;;;;;42.50;27.15;;;;;;;0.52;100.00;99841.59;5037420;28;20197;-74
2022/12/11 10:14:35;;;;;;;41.83;24.88;;;;;;;0.58;100.00;99844.16;5040584;28;20217;-74
2022/12/11 10:17:10;;;;;;;44.38;26.08;;;;;;;0.55;100.00;99842.44;5040020;28;20185;-74
2022/12/11 10:19:38;;;;;;;40.60;25.25;;;;;;;0.62;100.00;99846.75;5040264;28;20285;-75
2022/12/11 10:22:05;;;;;;;44.63;27.10;;;;;;;0.45;100.00;99847.88;5040111;28;20280;-73
2022/12/11 10:24:38;;;;;;;41.88;24.83;;;;;;;0.46;100.00;99855.81;5039564;28;20301;-74
2022/12/11 10:27:14;;;;;;;49.67;27.35;;;;;;;0.44;100.00;99848.78;5043696;28;20206;-74
2022/12/11 10:29:41;;;;;;;42.63;26.00;;;;;;;0.42;100.00;99851.44;5047997;28;20264;-73
2022/12/11 10:32:20;;;;;;;46.65;26.48;;;;;;;0.49;100.00;99841.66;5061204;28;20205;-74
2022/12/11 10:34:49;;;;;;;53.53;29.63;;;;;;;0.36;100.00;99840.91;5065135;22;20215;-72
2022/12/11 10:37:16;;;;;;;44.92;28.75;;;;;;;0.29;100.00;99841.91;5061003;28;20198;-74
2022/12/11 10:39:42;;;;;;;42.47;26.70;;;;;;;0.32;100.00;99839.22;5059106;28;20280;-73
2022/12/11 10:42:16;;;;;;;43.17;28.17;;;;;;;0.41;100.00;99839.09;5059481;28;20197;-72
2022/12/11 10:44:55;;;;;;;42.70;27.98;;;;;;;0.53;100.00;99832.75;5056935;28;20260;-75
2022/12/11 10:47:23;;;;;;;43.03;25.10;;;;;;;0.50;100.00;99827.47;5059377;28;20731;-73
2022/12/11 10:49:53;;;;;;;45.05;26.42;;;;;;;0.49;100.00;99826.63;5057570;28;20202;-73
2022/12/11 10:52:23;;;;;;;44.42;26.77;;;;;;;0.58;100.00;99830.91;5054104;28;20730;-71
2022/12/11 10:54:56;;;;;;;41.35;24.58;;;;;;;0.49;100.00;99820.44;5039045;28;20304;-71
2022/12/11 10:57:28;;;;;;;51.03;27.30;;;;;;;0.62;100.00;99825.56;5042558;28;20667;-71
2022/12/11 10:59:55;;;;;;;43.45;25.85;;;;;;;0.80;100.00;99816.47;5052593;28;20649;-71
2022/12/11 11:02:26;;;;;;;42.15;23.70;;;;;;;0.73;100.00;99819.25;5055443;28;20205;-73
2022/12/11 11:04:54;;;;;;;42.75;25.83;;;;;;;0.81;100.00;99806.72;5044296;28;20260;-70
2022/12/11 11:07:23;;;;;;;45.58;26.95;;;;;;;0.70;100.00;99801.59;5045103;28;20201;-72
2022/12/11 11:09:53;;;;;;;42.90;26.75;;;;;;;0.73;100.00;99804.22;5057983;28;20224;-73
2022/12/11 11:12:23;;;;;;;56.13;33.90;;;;;;;0.83;100.00;99807.59;5056370;28;20219;-72
2022/12/11 11:14:59;;;;;;;45.53;27.80;;;;;;;0.99;100.00;99798.47;5037358;28;20276;-74
2022/12/11 11:17:27;;;;;;;44.92;27.25;;;;;;;0.91;100.00;99791.56;5051035;28;20240;-72
2022/12/11 11:19:57;;;;;;;41.90;25.52;;;;;;;0.99;100.00;99802.91;5054754;28;20225;-72
2022/12/11 11:22:23;;;;;;;43.60;26.50;;;;;;;1.09;100.00;99783.31;5055817;28;20691;-72
2022/12/11 11:24:55;;;;;;;50.33;29.25;;;;;;;1.34;100.00;99788.22;5057181;28;20214;-72
2022/12/11 11:27:29;;;;;;;137.80;77.47;;;;;;;1.52;100.00;99781.69;5058865;28;20281;-76
2022/12/11 11:30:00;;;;;;;57.95;34.38;;;;;;;1.51;100.00;99779.94;5058027;28;20770;-71